Time;durP1;ratioP1;P1;durP2;ratioP2;P2;SDS_P1;SDS_P2;PMS_P1;PMS_P2;Temp;Humidity;BMP_temperature;BMP_pressure;BME280_temperature;BME280_humidity;BME280_pressure;Samples;Min_cycle;Max_cycle;Signal;HPM_P1;HPM_P2
2021/11/03 00:02:17;;;;;;;22.48;15.63;;;;;;;3.67;100.00;100020.13;5022480;28;20359;-82
2021/11/03 00:04:43;;;;;;;23.15;16.63;;;;;;;3.68;100.00;100019.19;5033373;28;20029;-81
2021/11/03 00:07:11;;;;;;;25.85;15.77;;;;;;;3.67;100.00;100025.31;5030388;28;20118;-82
2021/11/03 00:09:38;;;;;;;21.88;15.18;;;;;;;3.64;100.00;100018.59;5029354;28;20060;-82
2021/11/03 00:12:15;;;;;;;19.08;14.95;;;;;;;3.61;100.00;100018.03;5019352;28;20037;-82
2021/11/03 00:14:41;;;;;;;23.73;15.25;;;;;;;3.62;100.00;100017.09;5032003;28;20434;-83
2021/11/03 00:17:07;;;;;;;20.85;15.18;;;;;;;3.55;100.00;100002.94;5016893;28;20112;-82
2021/11/03 00:19:33;;;;;;;22.55;13.95;;;;;;;3.59;100.00;100012.13;5049232;28;20032;-82
2021/11/03 00:21:58;;;;;;;19.50;14.25;;;;;;;3.62;100.00;100017.91;5017555;28;20056;-83
2021/11/03 00:24:25;;;;;;;29.40;15.75;;;;;;;3.50;100.00;100001.53;5046914;28;20047;-83
2021/11/03 00:26:51;;;;;;;26.33;15.52;;;;;;;3.47;100.00;99991.41;5013297;28;20033;-81
2021/11/03 00:29:17;;;;;;;31.38;17.13;;;;;;;3.67;100.00;100023.56;5019956;28;20508;-81
2021/11/03 00:31:43;;;;;;;31.63;17.63;;;;;;;3.73;100.00;100014.47;5012713;28;20068;-81
2021/11/03 00:34:09;;;;;;;37.13;17.67;;;;;;;3.68;100.00;100009.63;5033011;28;20033;-81
2021/11/03 00:36:35;;;;;;;27.70;15.82;;;;;;;3.73;100.00;100011.88;5004328;28;20036;-80
2021/11/03 00:39:01;;;;;;;24.60;15.88;;;;;;;3.81;100.00;100017.28;5053576;28;20067;-82
2021/11/03 00:41:27;;;;;;;24.85;16.60;;;;;;;3.73;100.00;100001.50;5021419;28;20043;-79
2021/11/03 00:43:53;;;;;;;28.90;17.55;;;;;;;3.86;100.00;100022.09;5006101;28;20029;-79
2021/11/03 00:46:19;;;;;;;21.13;15.68;;;;;;;3.85;100.00;100026.47;5040062;28;20537;-80
2021/11/03 00:48:46;;;;;;;33.38;16.25;;;;;;;3.84;100.00;100021.41;5022684;28;20037;-81
2021/11/03 00:51:15;;;;;;;35.72;16.30;;;;;;;3.80;100.00;100018.22;5014851;28;20036;-81
2021/11/03 00:53:41;;;;;;;35.13;17.20;;;;;;;3.79;100.00;100019.19;5006249;28;20461;-80
2021/11/03 00:56:07;;;;;;;34.45;16.85;;;;;;;3.73;100.00;100019.66;5022962;28;20020;-80
2021/11/03 00:58:34;;;;;;;28.20;16.60;;;;;;;3.68;100.00;100017.41;5022926;28;20041;-79
2021/11/03 01:01:01;;;;;;;31.88;18.38;;;;;;;3.63;100.00;100011.75;5026350;28;20823;-81
2021/11/03 01:03:27;;;;;;;31.92;18.27;;;;;;;3.58;100.00;99993.16;5013226;28;20132;-79
2021/11/03 01:05:53;;;;;;;35.53;18.75;;;;;;;3.63;100.00;100013.53;5003307;28;20024;-80
2021/11/03 01:08:19;;;;;;;45.67;18.27;;;;;;;3.48;100.00;100007.78;5024212;28;20513;-81
2021/11/03 01:10:48;;;;;;;76.00;18.20;;;;;;;3.37;100.00;100011.22;5032423;28;20034;-82
2021/11/03 01:13:16;;;;;;;72.30;17.83;;;;;;;3.28;100.00;100017.09;5038568;28;20358;-79
2021/11/03 01:15:42;;;;;;;34.42;16.08;;;;;;;3.27;100.00;100021.44;5022002;28;20028;-82
2021/11/03 01:18:09;;;;;;;24.13;15.10;;;;;;;3.23;100.00;100008.84;5032978;28;20032;-80
2021/11/03 01:20:36;;;;;;;27.42;14.05;;;;;;;3.24;100.00;100019.09;5036877;28;20135;-78
2021/11/03 01:23:03;;;;;;;19.60;13.60;;;;;;;3.18;100.00;100010.94;5052858;28;20091;-80
2021/11/03 01:25:29;;;;;;;24.83;14.95;;;;;;;3.19;100.00;100015.22;5010486;28;20079;-80
2021/11/03 01:27:58;;;;;;;18.90;13.15;;;;;;;3.19;100.00;100015.22;5028616;28;20465;-80
2021/11/03 01:30:28;;;;;;;17.48;11.60;;;;;;;3.20;100.00;100007.31;5005630;28;20036;-81
2021/11/03 01:32:55;;;;;;;19.85;12.60;;;;;;;3.23;100.00;100011.44;5039334;28;20671;-79
2021/11/03 01:35:24;;;;;;;14.50;11.57;;;;;;;3.24;100.00;100003.53;5039616;28;20040;-79
2021/11/03 01:37:51;;;;;;;17.05;11.20;;;;;;;3.28;100.00;100004.94;5039357;28;20037;-79
2021/11/03 01:40:23;;;;;;;19.08;12.48;;;;;;;3.28;100.00;99996.38;5038530;28;20115;-79
2021/11/03 01:42:49;;;;;;;;;;;;;;;3.20;100.00;99996.94;5010318;28;20052;-80
2021/11/03 01:45:19;;;;;;;30.88;13.18;;;;;;;3.18;100.00;99998.00;5015664;28;20379;-80
2021/11/03 01:47:52;;;;;;;17.75;12.60;;;;;;;3.13;100.00;99990.59;5005383;28;20033;-82
2021/11/03 01:50:52;;;;;;;18.98;12.95;;;;;;;3.12;100.00;99999.28;5034586;28;20033;-81
2021/11/03 01:53:27;;;;;;;14.63;13.07;;;;;;;3.13;100.00;99995.75;5047263;28;20041;-80
2021/11/03 01:56:06;;;;;;;28.85;14.10;;;;;;;3.12;100.00;99996.69;5005037;28;20067;-81
2021/11/03 01:58:45;;;;;;;19.17;13.48;;;;;;;3.10;100.00;100007.16;5035020;28;20484;-79
2021/11/03 02:01:16;;;;;;;16.95;13.55;;;;;;;3.10;100.00;99996.81;5020688;28;20076;-82
2021/11/03 02:03:43;;;;;;;40.92;15.35;;;;;;;3.10;100.00;99999.41;5005948;28;20033;-79
2021/11/03 02:06:14;;;;;;;28.80;15.45;;;;;;;3.08;100.00;100001.28;5022378;28;20032;-79
2021/11/03 02:08:43;;;;;;;23.23;15.57;;;;;;;3.10;100.00;99998.56;5054219;28;20036;-80
2021/11/03 02:11:12;;;;;;;52.90;17.05;;;;;;;3.14;100.00;99997.41;5039811;28;20083;-79
2021/11/03 02:13:38;;;;;;;33.55;17.73;;;;;;;3.21;100.00;100000.34;5023698;28;20082;-81
2021/11/03 02:16:06;;;;;;;24.10;17.42;;;;;;;3.26;100.00;99986.09;5004910;28;20503;-83
2021/11/03 02:18:34;;;;;;;21.45;16.15;;;;;;;3.36;100.00;99995.78;5041080;28;20036;-79
2021/11/03 02:21:00;;;;;;;23.92;16.80;;;;;;;3.45;100.00;99990.69;5036017;28;20045;-80
2021/11/03 02:23:37;;;;;;;26.52;17.85;;;;;;;3.64;100.00;100003.03;5017078;28;20452;-80
2021/11/03 02:26:13;;;;;;;30.80;20.73;;;;;;;3.76;100.00;100000.44;5006076;28;20388;-79
2021/11/03 02:28:42;;;;;;;28.33;17.92;;;;;;;3.83;100.00;99996.41;5003790;28;20037;-79
2021/11/03 02:31:09;;;;;;;28.35;18.27;;;;;;;3.90;100.00;99995.81;5018240;28;20032;-80
2021/11/03 02:33:36;;;;;;;25.85;17.95;;;;;;;3.96;100.00;99996.28;5018126;28;20156;-80
2021/11/03 02:36:06;;;;;;;28.92;18.85;;;;;;;3.95;100.00;99984.22;5022847;28;20463;-80
2021/11/03 02:38:42;;;;;;;26.08;17.65;;;;;;;4.01;100.00;99991.53;5048988;28;20041;-80
2021/11/03 02:41:32;;;;;;;27.23;17.17;;;;;;;4.08;100.00;99995.28;5049491;28;20475;-79
2021/11/03 02:44:08;;;;;;;24.65;16.50;;;;;;;4.13;100.00;99989.75;5021326;28;20036;-81
2021/11/03 02:46:33;;;;;;;25.23;17.25;;;;;;;4.12;100.00;99993.25;5021030;28;20028;-81
2021/11/03 02:48:59;;;;;;;29.42;17.52;;;;;;;4.19;100.00;99997.03;5052918;28;20434;-81
2021/11/03 02:51:28;;;;;;;32.42;18.52;;;;;;;4.24;100.00;99998.31;5037620;28;20085;-81
2021/11/03 02:54:01;;;;;;;27.50;17.52;;;;;;;4.26;100.00;99998.19;5032693;28;20414;-79
2021/11/03 02:56:30;;;;;;;24.65;16.23;;;;;;;4.31;100.00;99996.00;5021225;28;20139;-81
2021/11/03 02:58:56;;;;;;;28.48;16.45;;;;;;;4.35;100.00;99996.59;5021575;28;20538;-81
2021/11/03 03:01:30;;;;;;;27.85;16.20;;;;;;;4.38;100.00;99998.94;5042099;28;20040;-80
2021/11/03 03:03:57;;;;;;;22.58;15.85;;;;;;;4.40;100.00;100003.06;5032876;28;20059;-78
2021/11/03 03:06:26;;;;;;;21.48;15.65;;;;;;;4.43;100.00;99996.81;5024070;28;20678;-80
2021/11/03 03:08:55;;;;;;;24.90;15.27;;;;;;;4.47;100.00;99999.03;5026476;28;20491;-80
2021/11/03 03:11:24;;;;;;;25.45;15.13;;;;;;;4.48;100.00;100002.44;5040904;28;20033;-79
2021/11/03 03:13:50;;;;;;;25.55;15.60;;;;;;;4.53;100.00;99996.88;5007598;28;20072;-83
2021/11/03 03:16:20;;;;;;;24.17;15.38;;;;;;;4.48;100.00;99998.09;5046899;28;20045;-83
2021/11/03 03:18:47;;;;;;;25.73;15.15;;;;;;;4.46;100.00;100007.78;5014588;28;20041;-80
2021/11/03 03:21:13;;;;;;;26.10;15.18;;;;;;;4.45;100.00;100003.53;5036893;28;20087;-80
2021/11/03 03:23:43;;;;;;;22.08;14.32;;;;;;;4.41;100.00;100014.28;5006097;28;20479;-78
2021/11/03 03:26:12;;;;;;;18.85;13.38;;;;;;;4.38;100.00;100006.75;5058828;28;20449;-78
2021/11/03 03:28:39;;;;;;;23.40;13.65;;;;;;;4.39;100.00;100008.38;5043689;28;20095;-80
2021/11/03 03:31:06;;;;;;;25.17;13.90;;;;;;;4.39;100.00;100010.97;5039508;28;20411;-78
2021/11/03 03:33:33;;;;;;;20.35;14.95;;;;;;;4.33;100.00;100012.28;5011014;28;20526;-79
2021/11/03 03:35:59;;;;;;;21.65;14.30;;;;;;;4.30;100.00;100015.16;5027838;28;20044;-82
2021/11/03 03:38:27;;;;;;;19.77;13.57;;;;;;;4.36;100.00;100013.84;5021575;28;20067;-82
2021/11/03 03:40:53;;;;;;;23.27;13.50;;;;;;;4.24;100.00;100010.47;5029438;28;20025;-80
2021/11/03 03:43:19;;;;;;;20.38;13.25;;;;;;;4.15;100.00;100014.63;5005502;28;20037;-79
2021/11/03 03:45:45;;;;;;;18.65;13.48;;;;;;;4.03;100.00;100002.59;5035075;28;20033;-80
2021/11/03 03:48:11;;;;;;;21.33;12.80;;;;;;;4.04;100.00;100018.06;5037206;28;20037;-80
2021/11/03 03:50:38;;;;;;;20.55;13.00;;;;;;;3.97;100.00;100014.28;5037623;28;20116;-78
2021/11/03 03:53:04;;;;;;;19.38;12.25;;;;;;;3.85;100.00;100010.91;5022440;28;20645;-81
2021/11/03 03:55:31;;;;;;;17.50;12.85;;;;;;;3.76;100.00;100006.44;5019329;28;20036;-81
2021/11/03 03:57:57;;;;;;;21.92;12.93;;;;;;;3.70;100.00;100007.75;5026232;28;20036;-80
2021/11/03 04:00:23;;;;;;;21.23;12.98;;;;;;;3.71;100.00;100013.75;5025508;28;20036;-79
2021/11/03 04:02:52;;;;;;;16.17;12.35;;;;;;;3.66;100.00;100015.91;5037128;28;20031;-78
2021/11/03 04:05:21;;;;;;;16.08;11.43;;;;;;;3.61;100.00;100024.03;5039042;28;20033;-80
2021/11/03 04:07:48;;;;;;;16.40;11.70;;;;;;;3.58;100.00;100020.84;5034755;28;20147;-80
2021/11/03 04:10:14;;;;;;;16.52;11.57;;;;;;;3.56;100.00;100028.75;5022143;28;20152;-79
2021/11/03 04:12:41;;;;;;;16.30;11.50;;;;;;;3.49;100.00;100037.94;5015644;28;20503;-80
2021/11/03 04:15:09;;;;;;;17.92;11.40;;;;;;;3.43;100.00;100036.66;5020047;28;20495;-80
2021/11/03 04:17:35;;;;;;;18.00;11.35;;;;;;;3.41;100.00;100030.78;5022821;28;20112;-79
2021/11/03 04:20:03;;;;;;;18.23;11.05;;;;;;;3.37;100.00;100031.09;5005052;28;20043;-83
2021/11/03 04:22:28;;;;;;;17.23;11.00;;;;;;;3.36;100.00;100040.66;5021649;28;20119;-81
2021/11/03 04:24:54;;;;;;;17.30;11.95;;;;;;;3.28;100.00;100035.25;5021037;28;20539;-80
2021/11/03 04:27:20;;;;;;;18.23;11.43;;;;;;;3.29;100.00;100042.06;5041891;28;20033;-80
2021/11/03 04:29:46;;;;;;;15.65;11.23;;;;;;;3.27;100.00;100041.34;5037358;28;20061;-81
2021/11/03 04:32:13;;;;;;;15.88;12.05;;;;;;;3.28;100.00;100045.63;5036174;28;20029;-80
2021/11/03 04:34:40;;;;;;;17.48;11.93;;;;;;;3.33;100.00;100042.66;5029284;28;20057;-81
2021/11/03 04:37:06;;;;;;;19.38;12.43;;;;;;;3.38;100.00;100059.50;5004447;28;20036;-81
2021/11/03 04:39:36;;;;;;;18.20;12.45;;;;;;;3.46;100.00;100059.75;5020043;28;20025;-81
2021/11/03 04:42:02;;;;;;;15.88;11.60;;;;;;;3.50;100.00;100056.00;5037249;28;20087;-81
2021/11/03 04:44:27;;;;;;;18.38;12.55;;;;;;;3.59;100.00;100057.03;5017524;28;20491;-80
2021/11/03 04:46:53;;;;;;;16.52;11.13;;;;;;;3.67;100.00;100054.69;5020676;28;20114;-81
2021/11/03 04:49:25;;;;;;;16.77;11.35;;;;;;;3.71;100.00;100052.66;5003037;28;20040;-80
2021/11/03 04:51:52;;;;;;;17.48;11.27;;;;;;;3.74;100.00;100051.63;5052913;28;20377;-80
2021/11/03 04:54:18;;;;;;;14.75;11.13;;;;;;;3.78;100.00;100058.22;5031260;28;20091;-80
2021/11/03 04:56:44;;;;;;;19.02;11.45;;;;;;;3.78;100.00;100053.03;5032686;28;20086;-81
2021/11/03 04:59:11;;;;;;;15.95;10.98;;;;;;;3.77;100.00;100049.59;5037749;28;20040;-79
2021/11/03 05:01:37;;;;;;;13.07;10.55;;;;;;;3.77;100.00;100051.34;5023365;28;20043;-79
2021/11/03 05:04:04;;;;;;;16.88;11.27;;;;;;;3.76;100.00;100053.13;5025744;28;20064;-80
2021/11/03 05:06:33;;;;;;;14.32;10.40;;;;;;;3.81;100.00;100055.38;5013041;28;20486;-79
2021/11/03 05:09:04;;;;;;;14.75;11.73;;;;;;;3.78;100.00;100053.03;5029569;28;20040;-81
2021/11/03 05:11:31;;;;;;;15.07;11.32;;;;;;;3.74;100.00;100052.44;5030942;28;20048;-81
2021/11/03 05:13:57;;;;;;;16.08;11.60;;;;;;;3.72;100.00;100056.91;5019998;28;20040;-80
2021/11/03 05:16:26;;;;;;;17.73;11.45;;;;;;;3.73;100.00;100058.56;5049156;28;20056;-81
2021/11/03 05:18:55;;;;;;;15.75;11.23;;;;;;;3.76;100.00;100057.50;5036705;28;20390;-81
2021/11/03 05:21:20;;;;;;;21.77;12.38;;;;;;;3.66;100.00;100045.25;5020784;28;20037;-82
2021/11/03 05:23:48;;;;;;;17.95;12.00;;;;;;;3.62;100.00;100050.81;5044886;28;20033;-80
2021/11/03 05:26:19;;;;;;;20.80;11.57;;;;;;;3.58;100.00;100049.38;5036103;28;20411;-82
2021/11/03 05:28:49;;;;;;;15.63;11.25;;;;;;;3.54;100.00;100056.56;5015540;28;20083;-81
2021/11/03 05:31:15;;;;;;;22.05;12.25;;;;;;;3.54;100.00;100056.56;5024051;28;20040;-82
2021/11/03 05:33:40;;;;;;;16.80;11.80;;;;;;;3.47;100.00;100052.81;5017176;28;20047;-80
2021/11/03 05:36:06;;;;;;;18.30;11.13;;;;;;;3.45;100.00;100052.91;5031960;28;20021;-82
2021/11/03 05:38:32;;;;;;;16.45;10.73;;;;;;;3.41;100.00;100050.66;5041694;28;20191;-80
2021/11/03 05:40:58;;;;;;;14.40;10.68;;;;;;;3.33;100.00;100051.25;5040219;28;20033;-81
2021/11/03 05:43:23;;;;;;;15.40;11.63;;;;;;;3.28;100.00;100058.56;5037119;28;20037;-81
2021/11/03 05:45:50;;;;;;;17.17;11.85;;;;;;;3.26;100.00;100052.69;5043536;28;20451;-82
2021/11/03 05:48:17;;;;;;;19.15;11.95;;;;;;;3.24;100.00;100057.97;5024730;28;20035;-82
2021/11/03 05:50:43;;;;;;;17.90;11.85;;;;;;;3.17;100.00;100049.00;5016868;28;20120;-81
2021/11/03 05:53:09;;;;;;;15.23;12.27;;;;;;;3.13;100.00;100057.97;5019555;28;20033;-81
2021/11/03 05:55:36;;;;;;;18.10;11.80;;;;;;;3.10;100.00;100064.19;5030453;28;20044;-81
2021/11/03 05:58:02;;;;;;;21.10;12.05;;;;;;;3.08;100.00;100060.06;5040028;28;20036;-80
2021/11/03 06:00:33;;;;;;;16.80;11.07;;;;;;;3.03;100.00;100064.75;5032376;28;20488;-80
2021/11/03 06:02:59;;;;;;;17.73;11.25;;;;;;;2.97;100.00;100068.63;5041034;28;20475;-80
2021/11/03 06:05:26;;;;;;;19.02;11.82;;;;;;;2.94;100.00;100071.47;5027064;28;20079;-78
2021/11/03 06:07:54;;;;;;;16.88;12.40;;;;;;;2.88;100.00;100067.56;5039859;28;20626;-78
2021/11/03 06:10:25;;;;;;;16.50;11.73;;;;;;;2.86;100.00;100066.00;5041652;28;20040;-80
2021/11/03 06:12:51;;;;;;;18.80;12.80;;;;;;;2.77;100.00;100066.69;5040680;28;20075;-81
2021/11/03 06:15:18;;;;;;;17.65;11.77;;;;;;;2.78;100.00;100079.53;5038443;28;20566;-79
2021/11/03 06:17:44;;;;;;;17.90;11.68;;;;;;;2.73;100.00;100082.47;5039580;28;20119;-80
2021/11/03 06:20:10;;;;;;;15.85;11.55;;;;;;;2.71;100.00;100086.09;5024627;28;20215;-81
2021/11/03 06:22:36;;;;;;;15.75;11.32;;;;;;;2.68;100.00;100091.50;5033982;28;20064;-81
2021/11/03 06:25:04;;;;;;;15.73;10.88;;;;;;;2.63;100.00;100093.59;5034376;28;20075;-81
2021/11/03 06:27:37;;;;;;;15.07;11.35;;;;;;;2.61;100.00;100100.66;5039240;28;20045;-81
2021/11/03 06:30:05;;;;;;;17.58;11.38;;;;;;;2.60;100.00;100101.56;5042263;28;20123;-82
2021/11/03 06:32:31;;;;;;;16.20;10.80;;;;;;;2.63;100.00;100104.78;5052889;28;20467;-79
2021/11/03 06:34:57;;;;;;;17.17;11.70;;;;;;;2.67;100.00;100110.56;5042479;28;20119;-79
2021/11/03 06:37:23;;;;;;;14.30;10.57;;;;;;;2.66;100.00;100116.69;5040537;28;20036;-82
2021/11/03 06:39:49;;;;;;;18.25;12.32;;;;;;;2.65;100.00;100108.06;5039472;28;20048;-79
2021/11/03 06:42:16;;;;;;;17.50;11.93;;;;;;;2.62;100.00;100121.25;5036269;28;20043;-81
2021/11/03 06:44:41;;;;;;;16.35;11.30;;;;;;;2.61;100.00;100124.78;5044565;28;20211;-82
2021/11/03 06:47:07;;;;;;;18.85;12.07;;;;;;;2.53;100.00;100121.91;5027357;28;20029;-79
2021/11/03 06:49:33;;;;;;;20.60;12.43;;;;;;;2.49;100.00;100125.66;5027010;28;20553;-79
2021/11/03 06:51:59;;;;;;;21.00;12.65;;;;;;;2.42;100.00;100121.84;5043368;28;20116;-82
2021/11/03 06:54:24;;;;;;;19.45;13.60;;;;;;;2.41;100.00;100117.59;5026405;28;20033;-81
2021/11/03 06:56:52;;;;;;;19.23;12.82;;;;;;;2.45;100.00;100116.44;5054750;28;20075;-81
2021/11/03 06:59:19;;;;;;;18.25;12.82;;;;;;;2.51;100.00;100116.03;5023759;28;20062;-81
2021/11/03 07:01:46;;;;;;;19.33;12.50;;;;;;;2.53;100.00;100119.31;5039385;28;20067;-79
2021/11/03 07:04:13;;;;;;;19.35;12.20;;;;;;;2.55;100.00;100112.28;5037369;28;20033;-79
2021/11/03 07:06:40;;;;;;;19.65;12.63;;;;;;;2.59;100.00;100123.25;5035150;28;20042;-79
2021/11/03 07:09:06;;;;;;;19.10;12.60;;;;;;;2.57;100.00;100120.75;5045310;28;20086;-79
2021/11/03 07:11:32;;;;;;;25.48;14.52;;;;;;;2.65;100.00;100128.78;5020776;28;20040;-79
2021/11/03 07:13:58;;;;;;;19.52;13.13;;;;;;;2.64;100.00;100127.16;5040235;28;20039;-82
2021/11/03 07:16:26;;;;;;;18.60;12.77;;;;;;;2.72;100.00;100134.38;5038097;28;20052;-80
2021/11/03 07:18:52;;;;;;;21.20;13.80;;;;;;;2.78;100.00;100125.31;5020327;28;20029;-80
2021/11/03 07:21:18;;;;;;;26.20;15.10;;;;;;;2.82;100.00;100140.53;5039087;28;20029;-82
2021/11/03 07:23:44;;;;;;;29.02;17.08;;;;;;;2.91;100.00;100139.03;5040432;28;20094;-80
2021/11/03 07:26:11;;;;;;;25.98;16.33;;;;;;;3.01;100.00;100154.72;5025474;28;20392;-80
2021/11/03 07:28:37;;;;;;;29.67;16.38;;;;;;;3.15;100.00;100159.75;5032230;28;20061;-80
2021/11/03 07:31:04;;;;;;;28.95;16.88;;;;;;;3.30;100.00;100163.78;5053129;28;20036;-83
2021/11/03 07:33:31;;;;;;;30.02;17.50;;;;;;;3.47;100.00;100164.31;5040480;28;20043;-79
2021/11/03 07:35:57;;;;;;;29.50;17.95;;;;;;;3.55;100.00;100166.31;5025396;28;20449;-81
2021/11/03 07:38:22;;;;;;;35.95;18.88;;;;;;;3.67;100.00;100160.19;5039902;28;20055;-80
2021/11/03 07:40:52;;;;;;;27.73;18.02;;;;;;;3.73;100.00;100159.75;5016318;28;20483;-78
2021/11/03 07:43:20;;;;;;;36.22;19.88;;;;;;;3.75;100.00;100150.06;5032292;28;20380;-79
2021/11/03 07:45:47;;;;;;;35.85;19.67;;;;;;;3.85;100.00;100160.56;5021850;28;20041;-81
2021/11/03 07:48:13;;;;;;;32.78;18.55;;;;;;;3.93;100.00;100153.00;5027809;28;20041;-82
2021/11/03 07:50:42;;;;;;;32.63;18.85;;;;;;;4.02;100.00;100159.28;5030378;28;20034;-78
2021/11/03 07:53:10;;;;;;;37.53;20.92;;;;;;;4.07;100.00;100164.94;5006262;28;20037;-81
2021/11/03 07:55:40;;;;;;;31.67;19.25;;;;;;;4.10;100.00;100160.31;5018547;28;20045;-81
2021/11/03 07:58:05;;;;;;;29.13;18.63;;;;;;;4.12;100.00;100164.56;5026321;28;20032;-81
2021/11/03 08:00:35;;;;;;;36.80;19.73;;;;;;;4.18;100.00;100164.09;5043305;28;20063;-81
2021/11/03 08:03:02;;;;;;;33.72;20.33;;;;;;;4.29;100.00;100174.47;5032989;28;20115;-80
2021/11/03 08:05:28;;;;;;;35.88;20.45;;;;;;;4.38;100.00;100184.13;5037002;28;20045;-82
2021/11/03 08:07:56;;;;;;;34.85;20.63;;;;;;;4.48;100.00;100185.06;5031903;28;20112;-81
2021/11/03 08:10:24;;;;;;;37.80;20.63;;;;;;;4.59;100.00;100180.78;5039461;28;20609;-78
2021/11/03 08:12:51;;;;;;;35.65;20.42;;;;;;;4.68;100.00;100177.47;5032350;28;20037;-81
2021/11/03 08:15:17;;;;;;;28.92;17.30;;;;;;;4.61;100.00;100177.13;5039032;28;20037;-81
2021/11/03 08:17:43;;;;;;;30.73;19.02;;;;;;;4.68;100.00;100180.06;5020297;28;20164;-80
2021/11/03 08:20:12;;;;;;;38.53;20.83;;;;;;;4.81;100.00;100179.91;5016368;28;20063;-80
2021/11/03 08:22:38;;;;;;;40.33;20.98;;;;;;;4.79;100.00;100180.03;5028110;28;20040;-80
2021/11/03 08:25:04;;;;;;;32.55;18.65;;;;;;;4.85;100.00;100186.50;5036256;28;20045;-81
2021/11/03 08:27:30;;;;;;;37.17;19.60;;;;;;;4.90;100.00;100186.13;5033132;28;20056;-82
2021/11/03 08:29:56;;;;;;;37.88;19.05;;;;;;;4.92;100.00;100179.88;5047125;28;20531;-80
2021/11/03 08:32:27;;;;;;;34.65;19.60;;;;;;;5.00;100.00;100187.06;5043388;28;20491;-81
2021/11/03 08:34:54;;;;;;;34.42;19.85;;;;;;;5.03;100.00;100186.81;5010653;28;20044;-81
2021/11/03 08:37:26;;;;;;;42.88;21.27;;;;;;;5.05;100.00;100196.13;5037546;28;20525;-82
2021/11/03 08:39:54;;;;;;;39.85;20.27;;;;;;;5.13;100.00;100194.69;5056248;28;20028;-81
2021/11/03 08:42:22;;;;;;;36.88;21.13;;;;;;;5.20;100.00;100198.44;5033264;28;20041;-80
2021/11/03 08:44:50;;;;;;;42.70;23.52;;;;;;;5.32;100.00;100207.81;5038838;28;20065;-81
2021/11/03 08:47:16;;;;;;;41.05;22.15;;;;;;;5.36;100.00;100201.41;5051959;28;20086;-81
2021/11/03 08:49:42;;;;;;;46.45;22.25;;;;;;;5.41;100.00;100201.88;5018539;28;20477;-80
2021/11/03 08:52:09;;;;;;;44.22;23.58;;;;;;;5.47;100.00;100209.16;5006367;28;20047;-83
2021/11/03 08:54:39;;;;;;;51.75;26.20;;;;;;;5.51;100.00;100214.13;5001976;28;20037;-81
2021/11/03 08:57:06;;;;;;;53.13;26.80;;;;;;;5.57;100.00;100219.63;5034202;28;20124;-81
2021/11/03 08:59:31;;;;;;;47.50;26.40;;;;;;;5.67;100.00;100211.91;5008682;28;20453;-81
2021/11/03 09:01:57;;;;;;;47.25;25.38;;;;;;;5.83;100.00;100208.84;5031136;28;20025;-80
2021/11/03 09:04:22;;;;;;;53.05;26.77;;;;;;;5.87;100.00;100202.41;5037385;28;20067;-80
2021/11/03 09:06:48;;;;;;;49.30;26.02;;;;;;;5.98;100.00;100210.19;5032537;28;20045;-79
2021/11/03 09:09:13;;;;;;;50.10;26.13;;;;;;;6.00;100.00;100197.84;5034319;28;20416;-79
2021/11/03 09:11:39;;;;;;;47.85;24.70;;;;;;;6.01;100.00;100202.13;5016183;28;20072;-81
2021/11/03 09:14:05;;;;;;;45.53;24.98;;;;;;;5.92;100.00;100207.25;5044132;28;20439;-80
2021/11/03 09:16:32;;;;;;;43.65;23.80;;;;;;;5.82;100.00;100200.22;5019320;28;20034;-80
2021/11/03 09:19:00;;;;;;;48.00;25.10;;;;;;;5.85;100.00;100199.94;5022872;28;20049;-79
2021/11/03 09:21:26;;;;;;;48.30;25.50;;;;;;;5.94;100.00;100198.34;5039943;28;20044;-80
2021/11/03 09:23:52;;;;;;;47.47;24.85;;;;;;;6.09;100.00;100198.03;5034435;28;20029;-80
2021/11/03 09:26:20;;;;;;;45.90;24.13;;;;;;;6.14;100.00;100201.91;5006601;28;20033;-81
2021/11/03 09:28:47;;;;;;;44.65;24.95;;;;;;;6.20;100.00;100198.75;5023126;28;20033;-78
2021/11/03 09:31:14;;;;;;;47.58;24.45;;;;;;;6.32;100.00;100194.28;5039552;28;20585;-79
2021/11/03 09:33:40;;;;;;;45.97;25.45;;;;;;;6.48;100.00;100199.00;5022138;28;20032;-78
2021/11/03 09:36:11;;;;;;;47.63;25.48;;;;;;;6.59;100.00;100193.69;5006060;28;20037;-78
2021/11/03 09:38:37;;;;;;;49.70;27.08;;;;;;;6.62;100.00;100190.78;5038622;28;20036;-77
2021/11/03 09:41:18;;;;;;;48.97;26.73;;;;;;;6.60;100.00;100191.88;5042203;28;20040;-80
2021/11/03 09:43:52;;;;;;;48.75;27.95;;;;;;;6.54;100.00;100190.63;5028604;28;20483;-78
2021/11/03 09:46:25;;;;;;;54.13;28.35;;;;;;;6.50;100.00;100197.09;5035495;28;20126;-79
2021/11/03 09:49:00;;;;;;;55.30;28.38;;;;;;;6.44;100.00;100192.38;5021192;28;20033;-80
2021/11/03 09:51:38;;;;;;;54.17;29.25;;;;;;;6.40;100.00;100196.22;5033620;28;20049;-79
2021/11/03 09:54:14;;;;;;;51.95;29.13;;;;;;;6.33;100.00;100195.94;5011793;28;20131;-80
2021/11/03 09:56:56;;;;;;;58.08;29.75;;;;;;;6.34;100.00;100205.38;5025619;28;20480;-79
2021/11/03 09:59:31;;;;;;;57.78;31.55;;;;;;;6.44;100.00;100200.19;5017764;28;20036;-79
2021/11/03 10:02:34;;;;;;;58.72;30.55;;;;;;;6.62;100.00;100200.38;5044001;28;20133;-80
2021/11/03 10:05:13;;;;;;;55.40;31.13;;;;;;;6.74;100.00;100188.91;5040533;28;20036;-80
2021/11/03 10:07:59;;;;;;;53.42;30.40;;;;;;;6.91;100.00;100197.84;5019994;28;20033;-79
2021/11/03 10:10:50;;;;;;;53.00;30.33;;;;;;;7.18;100.00;100196.34;5024900;28;20033;-79
2021/11/03 10:13:27;;;;;;;50.42;29.25;;;;;;;7.24;100.00;100194.97;5005261;28;20048;-79
2021/11/03 10:16:25;;;;;;;47.30;28.52;;;;;;;7.27;100.00;100197.28;5027636;28;20025;-78
2021/11/03 10:18:53;;;;;;;49.20;28.05;;;;;;;7.32;100.00;100208.13;5016730;28;20110;-79
2021/11/03 10:21:41;;;;;;;52.03;29.60;;;;;;;7.37;100.00;100198.91;5015721;28;20037;-79
2021/11/03 10:24:13;;;;;;;55.10;30.48;;;;;;;7.34;100.00;100195.75;5028475;28;20062;-79
2021/11/03 10:26:56;;;;;;;51.90;29.47;;;;;;;7.43;100.00;100194.94;5029025;28;20514;-78
2021/11/03 10:29:42;;;;;;;45.90;28.02;;;;;;;7.57;100.00;100204.09;5041833;28;20278;-80
2021/11/03 10:32:07;;;;;;;38.13;24.27;;;;;;;7.60;100.00;100204.66;5033272;28;20025;-77
2021/11/03 10:34:32;;;;;;;42.33;24.38;;;;;;;7.68;100.00;100206.56;5041244;28;20045;-80
2021/11/03 10:37:13;;;;;;;39.90;23.90;;;;;;;7.69;100.00;100208.22;5041463;28;20033;-79
2021/11/03 10:39:54;;;;;;;37.58;22.75;;;;;;;7.59;100.00;100210.00;5025632;28;20041;-79
2021/11/03 10:42:27;;;;;;;35.75;22.35;;;;;;;7.50;100.00;100203.84;5022281;28;20537;-80
2021/11/03 10:45:15;;;;;;;37.45;22.05;;;;;;;7.44;100.00;100209.63;5043166;28;20420;-80
2021/11/03 10:47:44;;;;;;;37.90;23.50;;;;;;;7.45;100.00;100208.66;5029887;28;20118;-78
2021/11/03 10:50:27;;;;;;;38.10;23.58;;;;;;;7.64;100.00;100210.41;5018455;28;20434;-79
2021/11/03 10:53:44;;;;;;;38.70;23.10;;;;;;;7.60;100.00;100212.47;5032986;28;20045;-81
2021/11/03 10:56:14;;;;;;;39.72;24.45;;;;;;;7.71;100.00;100208.06;5026777;28;20124;-80
2021/11/03 10:58:49;;;;;;;42.35;23.27;;;;;;;7.91;100.00;100219.28;5019924;28;20068;-79
2021/11/03 11:01:23;;;;;;;33.75;21.45;;;;;;;8.09;100.00;100221.97;5015680;28;20040;-80
2021/11/03 11:04:22;;;;;;;36.47;20.98;;;;;;;8.12;100.00;100213.88;5028916;28;20037;-77
2021/11/03 11:06:54;;;;;;;33.78;20.55;;;;;;;8.09;100.00;100217.56;5047703;28;20068;-80
2021/11/03 11:09:39;;;;;;;32.53;20.77;;;;;;;8.01;100.00;100214.88;5019698;28;20054;-80
2021/11/03 11:12:43;;;;;;;34.00;22.67;;;;;;;7.76;100.00;100206.69;5032727;28;20060;-79
2021/11/03 11:15:14;;;;;;;37.30;23.08;;;;;;;7.70;100.00;100204.63;4940122;28;20089;-81
2021/11/03 11:18:10;;;;;;;36.72;23.23;;;;;;;7.77;100.00;100204.91;5024120;28;20395;-81
2021/11/03 11:20:42;;;;;;;37.15;22.10;;;;;;;7.63;100.00;100198.34;5032474;28;20049;-80